Providence, Rhode Island
Traffic Map
Current Weather Conditions
Providence, Rhode Island
Overcast
Overcast
58°
Feels Like: 58°
Wind Chill: 58° Ceiling: 1300
Heat Index: 58° Visibility: 10mi
Dew Point: 54° Wind: 13mph
Humidity: 87% Direction: 30° (NNE)
Pressure: 30.15in Gusts: 0mph
Raw Report DataKPVD 021651Z 03011KT 10SM OVC013 14/12 A3015 RMK AO2 RAE1553B02E12 SLP209 P0000 T01440122
Traffic Incident Summary
Active as of:
Severity:
Category:
InformationThere was an issue retrieving the traffic information for this location. Please try a different location or try again shortly.
Advertisements
Track Severe Weather on mobile